sensor_id;sensor_type;location;lat;lon;timestamp;P1;durP1;ratioP1;P2;durP2;ratioP2
14209;SDS011;7188;56.070;12.698;2023-05-24T00:02:07;14.43;;;13.03;;
14209;SDS011;7188;56.070;12.698;2023-05-24T00:04:33;11.80;;;10.57;;
14209;SDS011;7188;56.070;12.698;2023-05-24T00:06:59;12.83;;;11.47;;
14209;SDS011;7188;56.070;12.698;2023-05-24T00:09:29;12.23;;;11.13;;
14209;SDS011;7188;56.070;12.698;2023-05-24T00:11:55;12.37;;;11.20;;
14209;SDS011;7188;56.070;12.698;2023-05-24T00:14:38;9.60;;;8.67;;
14209;SDS011;7188;56.070;12.698;2023-05-24T00:17:04;9.93;;;9.03;;
14209;SDS011;7188;56.070;12.698;2023-05-24T00:19:30;10.30;;;9.37;;
14209;SDS011;7188;56.070;12.698;2023-05-24T00:21:55;8.87;;;8.07;;
14209;SDS011;7188;56.070;12.698;2023-05-24T00:24:22;8.43;;;7.57;;
14209;SDS011;7188;56.070;12.698;2023-05-24T00:26:48;7.33;;;6.53;;
14209;SDS011;7188;56.070;12.698;2023-05-24T00:29:13;9.47;;;7.73;;
14209;SDS011;7188;56.070;12.698;2023-05-24T00:31:39;7.80;;;6.83;;
14209;SDS011;7188;56.070;12.698;2023-05-24T00:34:05;8.90;;;8.00;;
14209;SDS011;7188;56.070;12.698;2023-05-24T00:36:31;8.03;;;7.23;;
14209;SDS011;7188;56.070;12.698;2023-05-24T00:38:57;8.40;;;7.47;;
14209;SDS011;7188;56.070;12.698;2023-05-24T00:41:24;7.70;;;6.80;;
14209;SDS011;7188;56.070;12.698;2023-05-24T00:43:50;8.30;;;7.37;;
14209;SDS011;7188;56.070;12.698;2023-05-24T00:48:47;8.33;;;7.43;;
14209;SDS011;7188;56.070;12.698;2023-05-24T00:51:13;8.47;;;7.57;;
14209;SDS011;7188;56.070;12.698;2023-05-24T00:53:40;8.30;;;7.50;;
14209;SDS011;7188;56.070;12.698;2023-05-24T00:56:08;9.87;;;8.37;;
14209;SDS011;7188;56.070;12.698;2023-05-24T00:58:37;9.17;;;7.40;;
14209;SDS011;7188;56.070;12.698;2023-05-24T01:01:03;9.17;;;8.23;;
14209;SDS011;7188;56.070;12.698;2023-05-24T01:03:30;8.30;;;7.40;;
14209;SDS011;7188;56.070;12.698;2023-05-24T01:05:58;8.20;;;7.33;;
14209;SDS011;7188;56.070;12.698;2023-05-24T01:14:28;8.67;;;7.43;;
14209;SDS011;7188;56.070;12.698;2023-05-24T01:17:21;9.47;;;8.57;;
14209;SDS011;7188;56.070;12.698;2023-05-24T01:20:02;7.47;;;6.70;;
14209;SDS011;7188;56.070;12.698;2023-05-24T01:27:35;9.37;;;8.27;;
14209;SDS011;7188;56.070;12.698;2023-05-24T01:30:02;9.93;;;8.47;;
14209;SDS011;7188;56.070;12.698;2023-05-24T01:32:28;9.23;;;8.30;;
14209;SDS011;7188;56.070;12.698;2023-05-24T01:34:55;9.43;;;8.07;;
14209;SDS011;7188;56.070;12.698;2023-05-24T01:37:20;8.93;;;7.73;;
14209;SDS011;7188;56.070;12.698;2023-05-24T01:39:46;8.13;;;6.70;;
14209;SDS011;7188;56.070;12.698;2023-05-24T01:47:45;9.57;;;8.50;;
14209;SDS011;7188;56.070;12.698;2023-05-24T01:52:56;8.87;;;8.00;;
14209;SDS011;7188;56.070;12.698;2023-05-24T01:55:28;8.17;;;6.60;;
14209;SDS011;7188;56.070;12.698;2023-05-24T01:57:57;7.53;;;6.83;;
14209;SDS011;7188;56.070;12.698;2023-05-24T02:00:27;8.77;;;7.33;;
14209;SDS011;7188;56.070;12.698;2023-05-24T02:02:53;8.23;;;6.80;;
14209;SDS011;7188;56.070;12.698;2023-05-24T02:05:20;7.43;;;6.77;;
14209;SDS011;7188;56.070;12.698;2023-05-24T02:07:46;7.80;;;6.93;;
14209;SDS011;7188;56.070;12.698;2023-05-24T02:10:11;7.30;;;6.60;;
14209;SDS011;7188;56.070;12.698;2023-05-24T02:12:37;13.97;;;7.40;;
14209;SDS011;7188;56.070;12.698;2023-05-24T02:15:03;8.87;;;5.93;;
14209;SDS011;7188;56.070;12.698;2023-05-24T02:17:30;7.43;;;6.47;;
14209;SDS011;7188;56.070;12.698;2023-05-24T02:19:57;7.93;;;6.87;;
14209;SDS011;7188;56.070;12.698;2023-05-24T02:22:24;7.20;;;6.50;;
14209;SDS011;7188;56.070;12.698;2023-05-24T02:24:50;8.60;;;7.10;;
14209;SDS011;7188;56.070;12.698;2023-05-24T02:27:16;6.83;;;6.10;;
14209;SDS011;7188;56.070;12.698;2023-05-24T02:29:41;6.87;;;6.17;;
14209;SDS011;7188;56.070;12.698;2023-05-24T02:32:07;6.93;;;6.33;;
14209;SDS011;7188;56.070;12.698;2023-05-24T02:34:33;6.57;;;5.97;;
14209;SDS011;7188;56.070;12.698;2023-05-24T02:36:58;6.87;;;6.27;;
14209;SDS011;7188;56.070;12.698;2023-05-24T02:39:24;6.43;;;5.93;;
14209;SDS011;7188;56.070;12.698;2023-05-24T02:41:50;7.40;;;6.67;;
14209;SDS011;7188;56.070;12.698;2023-05-24T02:44:15;9.60;;;6.20;;
14209;SDS011;7188;56.070;12.698;2023-05-24T02:46:41;7.03;;;6.37;;
14209;SDS011;7188;56.070;12.698;2023-05-24T02:49:06;6.93;;;6.30;;
14209;SDS011;7188;56.070;12.698;2023-05-24T02:51:33;6.93;;;6.23;;
14209;SDS011;7188;56.070;12.698;2023-05-24T02:54:01;6.57;;;6.07;;
14209;SDS011;7188;56.070;12.698;2023-05-24T02:56:27;7.37;;;6.60;;
14209;SDS011;7188;56.070;12.698;2023-05-24T02:58:53;6.37;;;5.27;;
14209;SDS011;7188;56.070;12.698;2023-05-24T03:01:19;7.90;;;5.73;;
14209;SDS011;7188;56.070;12.698;2023-05-24T03:03:46;7.00;;;6.37;;
14209;SDS011;7188;56.070;12.698;2023-05-24T03:06:11;8.63;;;6.03;;
14209;SDS011;7188;56.070;12.698;2023-05-24T03:08:40;7.37;;;6.50;;
14209;SDS011;7188;56.070;12.698;2023-05-24T03:11:06;10.73;;;6.67;;
14209;SDS011;7188;56.070;12.698;2023-05-24T03:13:32;7.80;;;7.10;;
14209;SDS011;7188;56.070;12.698;2023-05-24T03:15:58;6.90;;;6.30;;
14209;SDS011;7188;56.070;12.698;2023-05-24T03:18:23;6.67;;;5.90;;
14209;SDS011;7188;56.070;12.698;2023-05-24T03:20:49;6.37;;;5.70;;
14209;SDS011;7188;56.070;12.698;2023-05-24T03:23:21;7.00;;;6.30;;
14209;SDS011;7188;56.070;12.698;2023-05-24T03:25:46;9.03;;;7.53;;
14209;SDS011;7188;56.070;12.698;2023-05-24T03:28:12;8.47;;;7.37;;
14209;SDS011;7188;56.070;12.698;2023-05-24T03:30:39;8.03;;;7.13;;
14209;SDS011;7188;56.070;12.698;2023-05-24T03:33:05;8.80;;;7.90;;
14209;SDS011;7188;56.070;12.698;2023-05-24T03:35:30;7.90;;;7.20;;
14209;SDS011;7188;56.070;12.698;2023-05-24T03:37:56;9.50;;;8.50;;
14209;SDS011;7188;56.070;12.698;2023-05-24T03:40:22;9.40;;;8.33;;
14209;SDS011;7188;56.070;12.698;2023-05-24T03:42:49;9.57;;;8.67;;
14209;SDS011;7188;56.070;12.698;2023-05-24T03:45:15;9.63;;;8.50;;
14209;SDS011;7188;56.070;12.698;2023-05-24T03:47:41;8.97;;;8.17;;
14209;SDS011;7188;56.070;12.698;2023-05-24T03:50:06;9.60;;;7.83;;
14209;SDS011;7188;56.070;12.698;2023-05-24T03:52:32;9.40;;;8.37;;
14209;SDS011;7188;56.070;12.698;2023-05-24T03:54:58;10.50;;;8.80;;
14209;SDS011;7188;56.070;12.698;2023-05-24T03:57:24;8.77;;;7.83;;
14209;SDS011;7188;56.070;12.698;2023-05-24T03:59:49;8.90;;;8.00;;
14209;SDS011;7188;56.070;12.698;2023-05-24T04:02:15;10.37;;;8.07;;
14209;SDS011;7188;56.070;12.698;2023-05-24T04:04:40;9.00;;;8.20;;
14209;SDS011;7188;56.070;12.698;2023-05-24T04:07:06;9.43;;;8.50;;
14209;SDS011;7188;56.070;12.698;2023-05-24T04:09:37;8.87;;;8.07;;
14209;SDS011;7188;56.070;12.698;2023-05-24T04:12:04;9.37;;;8.53;;
14209;SDS011;7188;56.070;12.698;2023-05-24T04:14:45;11.80;;;9.77;;
14209;SDS011;7188;56.070;12.698;2023-05-24T04:17:11;9.73;;;8.83;;
14209;SDS011;7188;56.070;12.698;2023-05-24T04:19:37;9.63;;;8.73;;
14209;SDS011;7188;56.070;12.698;2023-05-24T04:22:03;9.23;;;8.53;;
14209;SDS011;7188;56.070;12.698;2023-05-24T04:24:29;11.70;;;9.43;;
14209;SDS011;7188;56.070;12.698;2023-05-24T04:26:55;9.60;;;8.70;;
14209;SDS011;7188;56.070;12.698;2023-05-24T04:29:22;10.23;;;9.33;;
14209;SDS011;7188;56.070;12.698;2023-05-24T04:31:51;10.77;;;9.00;;
14209;SDS011;7188;56.070;12.698;2023-05-24T04:34:16;13.57;;;9.90;;
14209;SDS011;7188;56.070;12.698;2023-05-24T04:36:46;10.90;;;9.30;;
14209;SDS011;7188;56.070;12.698;2023-05-24T04:39:13;10.80;;;9.63;;
14209;SDS011;7188;56.070;12.698;2023-05-24T04:41:39;10.50;;;9.50;;
14209;SDS011;7188;56.070;12.698;2023-05-24T04:44:05;10.17;;;9.27;;
14209;SDS011;7188;56.070;12.698;2023-05-24T04:46:31;10.17;;;9.23;;
14209;SDS011;7188;56.070;12.698;2023-05-24T04:48:59;11.97;;;10.33;;
14209;SDS011;7188;56.070;12.698;2023-05-24T04:51:26;13.10;;;11.83;;
14209;SDS011;7188;56.070;12.698;2023-05-24T04:53:52;11.83;;;10.63;;
14209;SDS011;7188;56.070;12.698;2023-05-24T04:56:17;10.67;;;9.60;;
14209;SDS011;7188;56.070;12.698;2023-05-24T04:58:43;11.37;;;10.47;;
14209;SDS011;7188;56.070;12.698;2023-05-24T05:01:09;10.10;;;9.20;;
14209;SDS011;7188;56.070;12.698;2023-05-24T05:03:35;10.40;;;9.50;;
14209;SDS011;7188;56.070;12.698;2023-05-24T05:06:00;11.83;;;10.63;;
14209;SDS011;7188;56.070;12.698;2023-05-24T05:08:29;10.43;;;9.53;;
14209;SDS011;7188;56.070;12.698;2023-05-24T05:10:55;11.13;;;10.13;;
14209;SDS011;7188;56.070;12.698;2023-05-24T05:13:20;10.87;;;9.83;;
14209;SDS011;7188;56.070;12.698;2023-05-24T05:15:46;10.43;;;9.60;;
14209;SDS011;7188;56.070;12.698;2023-05-24T05:18:12;9.73;;;8.83;;
14209;SDS011;7188;56.070;12.698;2023-05-24T05:20:37;11.20;;;10.17;;
14209;SDS011;7188;56.070;12.698;2023-05-24T05:23:03;10.50;;;9.40;;
14209;SDS011;7188;56.070;12.698;2023-05-24T05:25:29;10.20;;;9.30;;
14209;SDS011;7188;56.070;12.698;2023-05-24T05:27:55;8.93;;;8.23;;
14209;SDS011;7188;56.070;12.698;2023-05-24T05:30:23;9.13;;;8.23;;
14209;SDS011;7188;56.070;12.698;2023-05-24T05:32:49;9.33;;;8.53;;
14209;SDS011;7188;56.070;12.698;2023-05-24T05:35:15;8.80;;;8.10;;
14209;SDS011;7188;56.070;12.698;2023-05-24T05:37:40;9.10;;;8.40;;
14209;SDS011;7188;56.070;12.698;2023-05-24T05:40:06;8.37;;;7.77;;
14209;SDS011;7188;56.070;12.698;2023-05-24T05:42:33;8.20;;;7.43;;
14209;SDS011;7188;56.070;12.698;2023-05-24T05:44:58;9.57;;;7.13;;
14209;SDS011;7188;56.070;12.698;2023-05-24T05:47:24;8.23;;;7.47;;
14209;SDS011;7188;56.070;12.698;2023-05-24T05:49:50;8.07;;;7.40;;
14209;SDS011;7188;56.070;12.698;2023-05-24T05:52:15;7.73;;;7.00;;
14209;SDS011;7188;56.070;12.698;2023-05-24T05:54:41;6.57;;;6.07;;
14209;SDS011;7188;56.070;12.698;2023-05-24T05:57:07;7.90;;;7.30;;
14209;SDS011;7188;56.070;12.698;2023-05-24T05:59:35;8.13;;;7.53;;
14209;SDS011;7188;56.070;12.698;2023-05-24T06:02:02;7.07;;;6.53;;
14209;SDS011;7188;56.070;12.698;2023-05-24T06:04:30;8.03;;;5.83;;
14209;SDS011;7188;56.070;12.698;2023-05-24T06:06:56;8.17;;;6.77;;
14209;SDS011;7188;56.070;12.698;2023-05-24T06:09:21;6.93;;;6.43;;
14209;SDS011;7188;56.070;12.698;2023-05-24T06:11:47;8.03;;;7.33;;
14209;SDS011;7188;56.070;12.698;2023-05-24T06:14:13;6.53;;;6.03;;
14209;SDS011;7188;56.070;12.698;2023-05-24T06:16:43;7.10;;;6.40;;
14209;SDS011;7188;56.070;12.698;2023-05-24T06:19:09;6.57;;;6.07;;
14209;SDS011;7188;56.070;12.698;2023-05-24T06:21:39;6.07;;;5.57;;
14209;SDS011;7188;56.070;12.698;2023-05-24T06:24:11;6.70;;;6.10;;
14209;SDS011;7188;56.070;12.698;2023-05-24T06:26:37;6.50;;;6.00;;
14209;SDS011;7188;56.070;12.698;2023-05-24T06:29:03;7.10;;;6.50;;
14209;SDS011;7188;56.070;12.698;2023-05-24T06:31:28;6.53;;;6.13;;
14209;SDS011;7188;56.070;12.698;2023-05-24T06:33:54;6.53;;;5.93;;
14209;SDS011;7188;56.070;12.698;2023-05-24T06:36:35;6.73;;;6.23;;
14209;SDS011;7188;56.070;12.698;2023-05-24T06:39:05;7.37;;;6.57;;
14209;SDS011;7188;56.070;12.698;2023-05-24T06:41:31;6.93;;;6.33;;
14209;SDS011;7188;56.070;12.698;2023-05-24T06:43:57;6.93;;;6.13;;
14209;SDS011;7188;56.070;12.698;2023-05-24T06:46:22;5.73;;;5.23;;
14209;SDS011;7188;56.070;12.698;2023-05-24T06:48:48;6.17;;;5.60;;
14209;SDS011;7188;56.070;12.698;2023-05-24T06:51:13;6.30;;;5.73;;
14209;SDS011;7188;56.070;12.698;2023-05-24T06:53:39;6.47;;;5.57;;
14209;SDS011;7188;56.070;12.698;2023-05-24T06:56:05;6.50;;;5.90;;
14209;SDS011;7188;56.070;12.698;2023-05-24T06:58:34;6.13;;;5.57;;
14209;SDS011;7188;56.070;12.698;2023-05-24T07:01:00;6.13;;;5.63;;
14209;SDS011;7188;56.070;12.698;2023-05-24T07:03:26;6.23;;;5.73;;
14209;SDS011;7188;56.070;12.698;2023-05-24T07:05:52;6.30;;;5.80;;
14209;SDS011;7188;56.070;12.698;2023-05-24T07:08:17;6.30;;;5.70;;
14209;SDS011;7188;56.070;12.698;2023-05-24T07:10:43;6.30;;;5.80;;
14209;SDS011;7188;56.070;12.698;2023-05-24T07:13:09;6.83;;;6.23;;
14209;SDS011;7188;56.070;12.698;2023-05-24T07:15:38;7.17;;;6.57;;
14209;SDS011;7188;56.070;12.698;2023-05-24T07:18:10;6.77;;;5.33;;
14209;SDS011;7188;56.070;12.698;2023-05-24T07:20:36;6.70;;;6.20;;
14209;SDS011;7188;56.070;12.698;2023-05-24T07:23:02;6.67;;;5.93;;
14209;SDS011;7188;56.070;12.698;2023-05-24T07:25:29;6.77;;;6.17;;
14209;SDS011;7188;56.070;12.698;2023-05-24T07:27:56;7.30;;;6.60;;
14209;SDS011;7188;56.070;12.698;2023-05-24T07:30:22;7.53;;;6.60;;
14209;SDS011;7188;56.070;12.698;2023-05-24T07:32:48;6.50;;;6.00;;
14209;SDS011;7188;56.070;12.698;2023-05-24T07:35:13;7.07;;;6.47;;
14209;SDS011;7188;56.070;12.698;2023-05-24T07:37:40;6.90;;;6.30;;
14209;SDS011;7188;56.070;12.698;2023-05-24T07:40:15;6.27;;;5.77;;
14209;SDS011;7188;56.070;12.698;2023-05-24T07:42:41;6.17;;;5.57;;
14209;SDS011;7188;56.070;12.698;2023-05-24T07:45:07;6.10;;;5.60;;
14209;SDS011;7188;56.070;12.698;2023-05-24T07:47:34;6.20;;;5.80;;
14209;SDS011;7188;56.070;12.698;2023-05-24T07:50:00;6.60;;;6.00;;
14209;SDS011;7188;56.070;12.698;2023-05-24T07:52:25;6.13;;;5.63;;
14209;SDS011;7188;56.070;12.698;2023-05-24T07:54:52;6.53;;;6.03;;
14209;SDS011;7188;56.070;12.698;2023-05-24T07:57:18;5.70;;;5.30;;
14209;SDS011;7188;56.070;12.698;2023-05-24T07:59:44;6.03;;;5.43;;
14209;SDS011;7188;56.070;12.698;2023-05-24T08:02:10;6.07;;;5.60;;
14209;SDS011;7188;56.070;12.698;2023-05-24T08:04:38;6.20;;;5.60;;
14209;SDS011;7188;56.070;12.698;2023-05-24T08:07:04;6.33;;;5.83;;
14209;SDS011;7188;56.070;12.698;2023-05-24T08:09:30;6.47;;;5.87;;
14209;SDS011;7188;56.070;12.698;2023-05-24T08:12:00;6.33;;;5.77;;
14209;SDS011;7188;56.070;12.698;2023-05-24T08:14:36;7.00;;;6.47;;
14209;SDS011;7188;56.070;12.698;2023-05-24T08:17:02;6.93;;;6.33;;
14209;SDS011;7188;56.070;12.698;2023-05-24T08:19:27;7.37;;;6.67;;
14209;SDS011;7188;56.070;12.698;2023-05-24T08:21:59;7.03;;;6.43;;
14209;SDS011;7188;56.070;12.698;2023-05-24T08:24:28;7.90;;;7.30;;
14209;SDS011;7188;56.070;12.698;2023-05-24T08:26:55;7.47;;;6.70;;
14209;SDS011;7188;56.070;12.698;2023-05-24T08:29:21;7.77;;;7.03;;
14209;SDS011;7188;56.070;12.698;2023-05-24T08:31:46;7.53;;;6.50;;
14209;SDS011;7188;56.070;12.698;2023-05-24T08:34:12;7.67;;;6.97;;
14209;SDS011;7188;56.070;12.698;2023-05-24T08:36:39;7.57;;;6.87;;
14209;SDS011;7188;56.070;12.698;2023-05-24T08:39:06;7.53;;;6.93;;
14209;SDS011;7188;56.070;12.698;2023-05-24T08:41:33;7.87;;;7.17;;
14209;SDS011;7188;56.070;12.698;2023-05-24T08:44:01;7.10;;;6.47;;
14209;SDS011;7188;56.070;12.698;2023-05-24T08:46:34;6.53;;;6.10;;
14209;SDS011;7188;56.070;12.698;2023-05-24T08:49:00;7.33;;;6.53;;
14209;SDS011;7188;56.070;12.698;2023-05-24T08:51:31;8.70;;;6.00;;
14209;SDS011;7188;56.070;12.698;2023-05-24T08:53:57;6.47;;;5.87;;
14209;SDS011;7188;56.070;12.698;2023-05-24T08:56:24;6.30;;;5.80;;
14209;SDS011;7188;56.070;12.698;2023-05-24T08:58:51;7.53;;;6.80;;
14209;SDS011;7188;56.070;12.698;2023-05-24T09:01:19;6.37;;;5.47;;
14209;SDS011;7188;56.070;12.698;2023-05-24T09:03:45;6.57;;;5.97;;
14209;SDS011;7188;56.070;12.698;2023-05-24T09:06:12;6.43;;;5.83;;
14209;SDS011;7188;56.070;12.698;2023-05-24T09:08:41;6.90;;;6.10;;
14209;SDS011;7188;56.070;12.698;2023-05-24T09:11:07;6.13;;;5.63;;
14209;SDS011;7188;56.070;12.698;2023-05-24T09:13:33;6.17;;;5.53;;
14209;SDS011;7188;56.070;12.698;2023-05-24T09:16:00;6.33;;;5.83;;
14209;SDS011;7188;56.070;12.698;2023-05-24T09:18:27;6.50;;;5.63;;
14209;SDS011;7188;56.070;12.698;2023-05-24T09:20:54;10.83;;;6.03;;
14209;SDS011;7188;56.070;12.698;2023-05-24T09:23:19;7.50;;;6.27;;
14209;SDS011;7188;56.070;12.698;2023-05-24T09:25:46;7.77;;;6.03;;
14209;SDS011;7188;56.070;12.698;2023-05-24T09:28:13;6.53;;;5.90;;
14209;SDS011;7188;56.070;12.698;2023-05-24T09:30:44;5.50;;;5.10;;
14209;SDS011;7188;56.070;12.698;2023-05-24T09:33:21;6.13;;;5.63;;
14209;SDS011;7188;56.070;12.698;2023-05-24T09:35:47;8.00;;;5.90;;
14209;SDS011;7188;56.070;12.698;2023-05-24T09:38:31;6.67;;;6.13;;
14209;SDS011;7188;56.070;12.698;2023-05-24T09:41:06;7.50;;;6.70;;
14209;SDS011;7188;56.070;12.698;2023-05-24T09:43:45;7.77;;;7.10;;
14209;SDS011;7188;56.070;12.698;2023-05-24T09:46:16;8.07;;;7.37;;
14209;SDS011;7188;56.070;12.698;2023-05-24T09:51:27;7.50;;;6.83;;
14209;SDS011;7188;56.070;12.698;2023-05-24T09:53:57;9.30;;;8.40;;
14209;SDS011;7188;56.070;12.698;2023-05-24T09:56:25;8.63;;;7.33;;
14209;SDS011;7188;56.070;12.698;2023-05-24T09:58:52;9.47;;;7.53;;
14209;SDS011;7188;56.070;12.698;2023-05-24T10:01:20;8.60;;;7.87;;
14209;SDS011;7188;56.070;12.698;2023-05-24T10:03:54;8.83;;;7.93;;
14209;SDS011;7188;56.070;12.698;2023-05-24T10:06:22;7.77;;;6.97;;
14209;SDS011;7188;56.070;12.698;2023-05-24T10:08:48;7.63;;;6.93;;
14209;SDS011;7188;56.070;12.698;2023-05-24T10:11:16;8.40;;;6.87;;
14209;SDS011;7188;56.070;12.698;2023-05-24T10:13:46;7.93;;;7.23;;
14209;SDS011;7188;56.070;12.698;2023-05-24T10:16:12;7.33;;;6.73;;
14209;SDS011;7188;56.070;12.698;2023-05-24T10:18:39;8.20;;;7.50;;
14209;SDS011;7188;56.070;12.698;2023-05-24T10:21:05;7.70;;;7.10;;
14209;SDS011;7188;56.070;12.698;2023-05-24T10:23:35;7.50;;;6.80;;
14209;SDS011;7188;56.070;12.698;2023-05-24T10:26:06;8.73;;;7.30;;
14209;SDS011;7188;56.070;12.698;2023-05-24T10:28:42;7.60;;;7.00;;
14209;SDS011;7188;56.070;12.698;2023-05-24T10:33:41;7.57;;;6.87;;
14209;SDS011;7188;56.070;12.698;2023-05-24T10:36:13;7.47;;;6.47;;
14209;SDS011;7188;56.070;12.698;2023-05-24T10:38:40;7.13;;;6.43;;
14209;SDS011;7188;56.070;12.698;2023-05-24T10:41:06;7.30;;;6.80;;
14209;SDS011;7188;56.070;12.698;2023-05-24T10:43:36;8.23;;;7.33;;
14209;SDS011;7188;56.070;12.698;2023-05-24T10:46:02;8.13;;;7.33;;
14209;SDS011;7188;56.070;12.698;2023-05-24T10:48:33;8.13;;;7.40;;
14209;SDS011;7188;56.070;12.698;2023-05-24T10:53:57;7.87;;;7.27;;
14209;SDS011;7188;56.070;12.698;2023-05-24T10:56:22;8.70;;;7.90;;
14209;SDS011;7188;56.070;12.698;2023-05-24T11:01:25;7.40;;;6.90;;
14209;SDS011;7188;56.070;12.698;2023-05-24T11:06:55;7.87;;;7.17;;
14209;SDS011;7188;56.070;12.698;2023-05-24T11:09:22;8.10;;;7.30;;
14209;SDS011;7188;56.070;12.698;2023-05-24T11:11:49;7.60;;;6.87;;
14209;SDS011;7188;56.070;12.698;2023-05-24T11:14:21;8.77;;;7.87;;
14209;SDS011;7188;56.070;12.698;2023-05-24T11:16:48;9.17;;;8.27;;
14209;SDS011;7188;56.070;12.698;2023-05-24T11:19:16;7.40;;;6.80;;
14209;SDS011;7188;56.070;12.698;2023-05-24T11:21:43;9.10;;;8.30;;
14209;SDS011;7188;56.070;12.698;2023-05-24T11:24:10;7.97;;;7.27;;
14209;SDS011;7188;56.070;12.698;2023-05-24T11:26:37;8.07;;;7.43;;
14209;SDS011;7188;56.070;12.698;2023-05-24T11:29:03;8.30;;;7.60;;
14209;SDS011;7188;56.070;12.698;2023-05-24T11:31:30;8.17;;;7.43;;
14209;SDS011;7188;56.070;12.698;2023-05-24T11:33:57;8.20;;;7.60;;
14209;SDS011;7188;56.070;12.698;2023-05-24T11:36:25;8.67;;;7.90;;
14209;SDS011;7188;56.070;12.698;2023-05-24T11:38:52;8.70;;;8.00;;
14209;SDS011;7188;56.070;12.698;2023-05-24T11:41:20;8.17;;;7.57;;
14209;SDS011;7188;56.070;12.698;2023-05-24T11:43:46;7.97;;;7.28;;
14209;SDS011;7188;56.070;12.698;2023-05-24T11:46:12;7.57;;;7.07;;
14209;SDS011;7188;56.070;12.698;2023-05-24T11:48:38;6.43;;;5.93;;
14209;SDS011;7188;56.070;12.698;2023-05-24T11:51:03;7.37;;;6.80;;
14209;SDS011;7188;56.070;12.698;2023-05-24T11:53:30;7.17;;;6.47;;
14209;SDS011;7188;56.070;12.698;2023-05-24T11:55:55;7.73;;;6.97;;
14209;SDS011;7188;56.070;12.698;2023-05-24T11:58:22;6.95;;;6.45;;
14209;SDS011;7188;56.070;12.698;2023-05-24T12:01:03;6.93;;;6.40;;
14209;SDS011;7188;56.070;12.698;2023-05-24T12:03:29;6.70;;;6.20;;
14209;SDS011;7188;56.070;12.698;2023-05-24T12:05:56;6.10;;;5.60;;
14209;SDS011;7188;56.070;12.698;2023-05-24T12:08:22;6.70;;;6.20;;
14209;SDS011;7188;56.070;12.698;2023-05-24T12:10:48;6.60;;;5.90;;
14209;SDS011;7188;56.070;12.698;2023-05-24T12:13:22;6.47;;;5.90;;
14209;SDS011;7188;56.070;12.698;2023-05-24T12:15:53;6.17;;;5.67;;
14209;SDS011;7188;56.070;12.698;2023-05-24T12:18:20;7.07;;;6.47;;
14209;SDS011;7188;56.070;12.698;2023-05-24T12:20:53;7.30;;;6.77;;
14209;SDS011;7188;56.070;12.698;2023-05-24T12:23:19;5.87;;;5.37;;
14209;SDS011;7188;56.070;12.698;2023-05-24T12:25:48;6.80;;;6.20;;
14209;SDS011;7188;56.070;12.698;2023-05-24T12:28:14;6.17;;;5.67;;
14209;SDS011;7188;56.070;12.698;2023-05-24T12:30:43;6.20;;;5.70;;
14209;SDS011;7188;56.070;12.698;2023-05-24T12:33:09;6.27;;;5.77;;
14209;SDS011;7188;56.070;12.698;2023-05-24T12:35:36;5.73;;;5.23;;
14209;SDS011;7188;56.070;12.698;2023-05-24T12:38:07;6.30;;;5.80;;
14209;SDS011;7188;56.070;12.698;2023-05-24T12:40:34;4.90;;;4.50;;
14209;SDS011;7188;56.070;12.698;2023-05-24T12:43:01;6.30;;;5.67;;
14209;SDS011;7188;56.070;12.698;2023-05-24T12:45:28;5.00;;;4.50;;
14209;SDS011;7188;56.070;12.698;2023-05-24T12:47:54;5.27;;;4.87;;
14209;SDS011;7188;56.070;12.698;2023-05-24T12:50:22;5.40;;;5.00;;
14209;SDS011;7188;56.070;12.698;2023-05-24T12:52:49;5.17;;;4.77;;
14209;SDS011;7188;56.070;12.698;2023-05-24T12:55:27;4.47;;;4.17;;
14209;SDS011;7188;56.070;12.698;2023-05-24T12:57:53;5.77;;;5.20;;
14209;SDS011;7188;56.070;12.698;2023-05-24T13:00:24;4.20;;;3.90;;
14209;SDS011;7188;56.070;12.698;2023-05-24T13:02:57;4.68;;;4.32;;
14209;SDS011;7188;56.070;12.698;2023-05-24T13:05:26;4.73;;;4.33;;
14209;SDS011;7188;56.070;12.698;2023-05-24T13:07:53;4.47;;;4.17;;
14209;SDS011;7188;56.070;12.698;2023-05-24T13:10:20;4.43;;;4.17;;
14209;SDS011;7188;56.070;12.698;2023-05-24T13:12:47;4.43;;;3.97;;
14209;SDS011;7188;56.070;12.698;2023-05-24T13:15:13;5.30;;;4.13;;
14209;SDS011;7188;56.070;12.698;2023-05-24T13:17:39;4.03;;;3.73;;
14209;SDS011;7188;56.070;12.698;2023-05-24T13:20:21;3.93;;;3.63;;
14209;SDS011;7188;56.070;12.698;2023-05-24T13:22:48;3.67;;;3.30;;
14209;SDS011;7188;56.070;12.698;2023-05-24T13:25:14;3.67;;;3.40;;
14209;SDS011;7188;56.070;12.698;2023-05-24T13:27:40;5.13;;;4.60;;
14209;SDS011;7188;56.070;12.698;2023-05-24T13:30:06;3.53;;;3.33;;
14209;SDS011;7188;56.070;12.698;2023-05-24T13:32:32;3.70;;;3.50;;
14209;SDS011;7188;56.070;12.698;2023-05-24T13:34:58;4.03;;;3.70;;
14209;SDS011;7188;56.070;12.698;2023-05-24T13:37:23;3.93;;;3.50;;
14209;SDS011;7188;56.070;12.698;2023-05-24T13:39:49;3.30;;;3.10;;
14209;SDS011;7188;56.070;12.698;2023-05-24T13:42:15;3.47;;;3.27;;
14209;SDS011;7188;56.070;12.698;2023-05-24T13:44:41;3.13;;;2.93;;
14209;SDS011;7188;56.070;12.698;2023-05-24T13:47:07;3.13;;;2.83;;
14209;SDS011;7188;56.070;12.698;2023-05-24T13:49:33;2.70;;;2.50;;
14209;SDS011;7188;56.070;12.698;2023-05-24T13:51:59;3.35;;;2.70;;
14209;SDS011;7188;56.070;12.698;2023-05-24T13:54:25;3.60;;;3.38;;
14209;SDS011;7188;56.070;12.698;2023-05-24T13:56:51;3.53;;;3.23;;
14209;SDS011;7188;56.070;12.698;2023-05-24T13:59:21;3.10;;;2.77;;
14209;SDS011;7188;56.070;12.698;2023-05-24T14:01:46;3.20;;;3.00;;
14209;SDS011;7188;56.070;12.698;2023-05-24T14:04:12;3.27;;;3.00;;
14209;SDS011;7188;56.070;12.698;2023-05-24T14:06:38;3.40;;;3.00;;
14209;SDS011;7188;56.070;12.698;2023-05-24T14:09:04;2.60;;;2.40;;
14209;SDS011;7188;56.070;12.698;2023-05-24T14:11:33;2.90;;;2.70;;
14209;SDS011;7188;56.070;12.698;2023-05-24T14:14:00;5.97;;;3.10;;
14209;SDS011;7188;56.070;12.698;2023-05-24T14:16:26;3.40;;;3.17;;
14209;SDS011;7188;56.070;12.698;2023-05-24T14:18:52;4.00;;;3.57;;
14209;SDS011;7188;56.070;12.698;2023-05-24T14:21:18;3.47;;;3.28;;
14209;SDS011;7188;56.070;12.698;2023-05-24T14:23:45;3.77;;;3.47;;
14209;SDS011;7188;56.070;12.698;2023-05-24T14:26:11;3.43;;;3.13;;
14209;SDS011;7188;56.070;12.698;2023-05-24T14:28:37;3.07;;;2.80;;
14209;SDS011;7188;56.070;12.698;2023-05-24T14:31:02;3.70;;;3.03;;
14209;SDS011;7188;56.070;12.698;2023-05-24T14:33:28;2.97;;;2.63;;
14209;SDS011;7188;56.070;12.698;2023-05-24T14:35:54;4.67;;;3.13;;
14209;SDS011;7188;56.070;12.698;2023-05-24T14:38:20;3.07;;;2.77;;
14209;SDS011;7188;56.070;12.698;2023-05-24T14:40:47;2.67;;;2.47;;
14209;SDS011;7188;56.070;12.698;2023-05-24T14:43:13;6.22;;;2.72;;
14209;SDS011;7188;56.070;12.698;2023-05-24T14:45:39;2.75;;;2.55;;
14209;SDS011;7188;56.070;12.698;2023-05-24T14:48:05;2.65;;;2.45;;
14209;SDS011;7188;56.070;12.698;2023-05-24T14:50:35;3.28;;;2.50;;
14209;SDS011;7188;56.070;12.698;2023-05-24T14:53:14;2.47;;;2.28;;
14209;SDS011;7188;56.070;12.698;2023-05-24T14:55:40;2.65;;;2.45;;
14209;SDS011;7188;56.070;12.698;2023-05-24T14:58:06;2.93;;;2.67;;
14209;SDS011;7188;56.070;12.698;2023-05-24T15:00:38;2.80;;;2.60;;
14209;SDS011;7188;56.070;12.698;2023-05-24T15:03:05;2.60;;;2.40;;
14209;SDS011;7188;56.070;12.698;2023-05-24T15:05:32;5.53;;;2.80;;
14209;SDS011;7188;56.070;12.698;2023-05-24T15:07:58;3.05;;;2.85;;
14209;SDS011;7188;56.070;12.698;2023-05-24T15:10:24;3.03;;;2.80;;
14209;SDS011;7188;56.070;12.698;2023-05-24T15:12:50;3.25;;;2.95;;
14209;SDS011;7188;56.070;12.698;2023-05-24T15:15:16;3.07;;;2.77;;
14209;SDS011;7188;56.070;12.698;2023-05-24T15:17:42;2.63;;;2.43;;
14209;SDS011;7188;56.070;12.698;2023-05-24T15:20:08;4.20;;;2.78;;
14209;SDS011;7188;56.070;12.698;2023-05-24T15:22:34;2.05;;;1.95;;